Latest Weather Observations for Jandakot

IDW60801

Issued at 11:03 pm WST Tuesday 24 January 2017 (issued every 30 minutes, with the page automatically refreshed every 10 minutes)

About weather observations | Map of weather stations | Latest weather observations for WA | Other Formats
Station Details ID: 009172 Name: JANDAKOT AERO Lat: -32.10 Lon: 115.88 Height: 30.0 m
Data from the previous 72 hours. | See also: Recent months at Jandakot
Date/Time
WST
Temp
°C
App
Temp
°C
Dew
Point
°C
Rel
Hum
%
Delta-T
°C
Wind Press
QNH
hPa
Press
MSL
hPa
Rain since
9am
mm
Dir  Spd
km/h
Gust
km/h
Spd
kts
Gust
kts
24/11:00pm 20.0 18.6 13.5 66 3.7 S 13 17 7 9 1016.8 1016.7 0.0
24/10:30pm 20.7 18.1 13.2 62 4.3 S 19 22 10 12 1016.9 1016.8 0.0
24/10:00pm 21.1 18.1 12.6 58 4.8 S 20 24 11 13 1017.0 1016.9 0.0
24/09:30pm 21.5 18.4 12.1 55 5.3 S 20 26 11 14 1017.1 1017.0 0.0
24/09:00pm 22.2 18.8 11.2 49 6.1 S 20 28 11 15 1017.0 1016.9 0.0
24/08:30pm 22.7 18.4 10.7 46 6.6 S 24 32 13 17 1017.0 1016.9 0.0
24/08:00pm 23.3 19.5 11.1 46 6.8 SSW 22 33 12 18 1016.6 1016.5 0.0
24/07:30pm 24.1 20.1 11.9 46 6.9 SSW 24 35 13 19 1016.1 1016.0 0.0
24/07:00pm 24.9 21.0 12.1 44 7.3 SSW 24 32 13 17 1015.8 1015.7 0.0
24/06:30pm 26.2 22.0 11.0 38 8.6 SSW 24 33 13 18 1015.4 1015.3 0.0
24/06:00pm 27.1 21.5 10.3 35 9.4 SW 30 37 16 20 1015.2 1015.1 0.0
24/05:30pm 27.9 22.1 9.3 31 10.3 SSW 30 37 16 20 1015.0 1014.9 0.0
24/05:00pm 29.0 22.9 8.1 27 11.4 SW 30 43 16 23 1014.8 1014.7 0.0
24/04:30pm 29.3 23.7 8.6 27 11.4 SW 28 37 15 20 1014.8 1014.7 0.0
24/04:00pm 30.0 24.1 10.3 29 11.2 WSW 32 37 17 20 1015.0 1014.9 0.0
24/03:30pm 30.1 24.5 11.4 31 10.8 W 32 37 17 20 1015.1 1015.0 0.0
24/03:00pm 31.1 26.0 10.5 28 11.8 WSW 28 33 15 18 1015.1 1015.0 0.0
24/02:30pm 31.2 26.4 10.4 27 11.9 WSW 26 32 14 17 1015.4 1015.3 0.0
24/02:00pm 32.0 29.0 4.0 17 14.5 ENE 9 20 5 11 1015.9 1015.8 0.0
24/01:30pm 31.0 27.5 3.6 17 14.0 ENE 11 26 6 14 1016.2 1016.1 0.0
24/01:00pm 30.5 26.6 3.6 18 13.7 S 13 22 7 12 1016.7 1016.6 0.0
24/12:30pm 30.0 25.8 4.0 19 13.3 E 15 26 8 14 1017.0 1016.9 0.0
24/12:00pm 29.2 25.4 5.7 22 12.3 ESE 15 28 8 15 1017.2 1017.1 0.0
24/11:30am 28.9 23.8 3.1 19 12.9 ESE 19 30 10 16 1017.6 1017.5 0.0
24/11:00am 28.3 24.2 6.2 24 11.6 E 17 24 9 13 1017.9 1017.8 0.0
24/10:30am 27.4 23.2 7.6 28 10.6 ESE 19 26 10 14 1018.2 1018.1 0.0
24/10:00am 25.9 20.9 8.2 32 9.5 ENE 24 30 13 16 1018.4 1018.3 0.0
24/09:30am 24.1 19.0 7.8 35 8.6 ENE 24 30 13 16 1018.4 1018.3 0.0
24/09:00am 23.4 19.1 7.8 36 8.2 ENE 20 30 11 16 1018.5 1018.4 0.0
24/08:30am 22.0 17.8 7.5 39 7.5 ENE 19 26 10 14 1018.8 1018.7 0.0
24/08:00am 20.9 17.1 7.5 42 6.9 ENE 17 24 9 13 1018.9 1018.8 0.0
24/07:30am 18.7 14.4 7.2 47 5.8 E 19 30 10 16 1018.9 1018.8 0.0
24/07:00am 17.3 12.5 7.3 52 5.0 E 22 32 12 17 1018.9 1018.8 0.0
24/06:30am 16.5 11.3 7.2 54 4.6 E 24 33 13 18 1018.6 1018.5 0.0
24/06:00am 15.7 11.3 7.4 57 4.1 E 20 32 11 17 1018.2 1018.1 0.0
24/05:30am 15.7 10.9 7.4 57 4.1 E 22 32 12 17 1018.0 1017.9 0.0
24/05:00am 15.8 11.1 7.8 59 4.0 E 22 37 12 20 1017.8 1017.7 0.0
24/04:30am 16.2 11.1 7.6 56 4.3 E 24 35 13 19 1017.8 1017.7 0.0
24/04:00am 16.5 11.4 7.7 56 4.4 E 24 32 13 17 1017.7 1017.6 0.0
24/03:30am 16.5 12.1 7.5 55 4.5 ESE 20 30 11 16 1017.5 1017.4 0.0
24/03:00am 17.1 11.8 7.0 51 5.0 ESE 24 37 13 20 1017.3 1017.2 0.0
24/02:30am 14.0 11.6 7.0 62 3.4 SE 9 17 5 9 1017.4 1017.3 0.0
24/02:00am 13.4 11.5 7.7 68 2.8 S 7 11 4 6 1017.4 1017.3 0.0
24/01:30am 14.2 11.2 7.5 64 3.3 SSW 13 17 7 9 1017.4 1017.3 0.0
24/01:00am 14.1 11.6 8.1 67 3.0 S 11 15 6 8 1017.6 1017.5 0.0
24/12:30am 14.8 11.9 8.2 64 3.3 S 13 17 7 9 1017.6 1017.5 0.0
24/12:00am 15.4 11.8 8.5 63 3.5 S 17 22 9 12 1017.8 1017.7 0.0
 
Date/Time
WST
Temp
°C
App
Temp
°C
Dew
Point
°C
Rel
Hum
%
Delta-T
°C
Wind Press
QNH
hPa
Press
MSL
hPa
Rain since
9am
mm
Dir  Spd
km/h
Gust
km/h
Spd
kts
Gust
kts
23/11:30pm 15.4 13.2 10.9 74 2.4 S 13 19 7 10 1017.8 1017.7 0.0
23/11:00pm 15.0 13.8 11.5 79 1.9 S 9 11 5 6 1018.1 1018.0 0.0
23/10:30pm 15.8 15.2 11.7 76 2.2 S 6 9 3 5 1018.0 1017.9 0.0
23/10:00pm 16.8 16.0 11.8 72 2.7 S 7 9 4 5 1018.0 1017.9 0.0
23/09:30pm 17.5 15.5 11.6 68 3.2 S 13 15 7 8 1017.9 1017.8 0.0
23/09:00pm 18.0 15.3 11.6 66 3.5 SSW 17 24 9 13 1017.7 1017.6 0.0
23/08:30pm 18.5 14.5 11.8 65 3.7 SSW 24 32 13 17 1017.5 1017.4 0.0
23/08:00pm 18.7 14.2 11.4 62 4.0 SSW 26 35 14 19 1017.3 1017.2 0.0
23/07:30pm 19.0 13.3 11.3 61 4.2 SSW 32 43 17 23 1017.0 1016.9 0.0
23/07:00pm 19.9 15.0 9.8 52 5.4 SSW 26 35 14 19 1016.8 1016.7 0.0
23/06:30pm 20.6 14.6 10.0 50 5.7 SSW 32 43 17 23 1016.4 1016.3 0.0
23/06:00pm 21.5 15.4 9.6 46 6.4 SW 32 41 17 22 1016.1 1016.0 0.0
23/05:30pm 22.1 15.9 9.5 44 6.8 SW 32 37 17 20 1015.9 1015.8 0.0
23/05:00pm 22.7 16.6 9.6 43 7.1 SW 32 39 17 21 1015.8 1015.7 0.0
23/04:30pm 22.8 16.6 9.2 42 7.3 SW 32 41 17 22 1015.7 1015.6 0.0
23/04:00pm 23.2 16.9 9.8 42 7.3 SW 33 44 18 24 1015.7 1015.6 0.0
23/03:30pm 23.6 18.0 10.3 43 7.3 SW 30 41 16 22 1015.8 1015.7 0.0
23/03:00pm 23.6 17.7 10.3 43 7.3 SW 32 41 17 22 1016.0 1015.9 0.0
23/02:30pm 24.1 18.7 9.6 39 7.9 SW 28 39 15 21 1016.1 1016.0 0.0
23/02:00pm 24.1 19.5 9.8 40 7.8 SW 24 39 13 21 1016.3 1016.2 0.0
23/01:30pm 24.5 19.9 9.7 39 8.1 SSW 24 39 13 21 1016.5 1016.4 0.0
23/01:00pm 24.2 18.9 9.7 39 7.9 SSW 28 35 15 19 1016.3 1016.2 0.0
23/12:30pm 24.8 20.3 10.1 39 8.1 SSW 24 39 13 21 1016.4 1016.3 0.0
23/12:00pm 24.4 20.2 8.3 35 8.6 SSW 20 32 11 17 1016.7 1016.6 0.0
23/11:30am 23.3 19.2 8.7 39 7.8 SW 20 32 11 17 1016.9 1016.8 0.0
23/11:00am 22.1 18.3 9.2 43 6.9 S 19 28 10 15 1017.2 1017.1 0.0
23/10:30am 21.7 17.8 9.6 46 6.5 SW 20 28 11 15 1017.1 1017.0 0.0
23/10:00am 21.3 17.5 9.8 48 6.2 SSW 20 28 11 15 1017.3 1017.2 0.0
23/09:30am 21.2 17.9 9.6 47 6.2 S 17 24 9 13 1017.3 1017.2 0.0
23/09:00am 20.6 17.9 10.2 51 5.6 S 15 24 8 13 1017.2 1017.1 0.0
23/08:30am 19.2 17.1 9.8 54 5.0 S 11 19 6 10 1017.4 1017.3 0.0
23/08:00am 19.0 16.8 9.5 54 5.0 SSE 11 15 6 8 1017.5 1017.4 0.0
23/07:30am 17.2 15.5 9.8 61 3.9 ESE 9 11 5 6 1017.2 1017.1 0.0
23/07:00am 15.1 14.8 10.1 72 2.6 SSE 2 7 1 4 1017.0 1016.9 0.0
23/06:30am 12.6 12.7 10.3 86 1.2 CALM 0 0 0 0 1016.7 1016.6 0.0
23/06:00am 9.9 9.4 8.0 88 0.9 CALM 0 4 0 2 1016.1 1016.0 0.0
23/05:30am 10.3 9.6 8.7 90 0.8 S 2 6 1 3 1015.8 1015.7 0.0
23/05:00am 10.2 8.7 8.6 90 0.8 S 6 7 3 4 1015.4 1015.3 0.0
23/04:30am 10.8 9.4 8.8 87 1.0 S 6 7 3 4 1015.1 1015.0 0.0
23/04:00am 11.4 10.2 9.4 87 1.0 S 6 7 3 4 1014.9 1014.8 0.0
23/03:30am 11.7 10.2 9.3 85 1.2 S 7 9 4 5 1014.6 1014.5 0.0
23/03:00am 13.0 11.4 10.1 82 1.5 S 9 11 5 6 1014.6 1014.5 0.0
23/02:30am 13.3 12.2 9.8 79 1.8 S 6 7 3 4 1014.6 1014.5 0.0
23/02:00am 14.5 12.5 10.3 76 2.2 S 11 13 6 7 1014.6 1014.5 0.0
23/01:30am 14.9 12.6 10.5 75 2.3 S 13 15 7 8 1014.7 1014.6 0.0
23/01:00am 15.2 13.1 11.1 76 2.2 S 13 17 7 9 1014.5 1014.3 0.0
23/12:30am 14.6 13.5 10.6 77 2.1 SSE 7 9 4 5 1014.4 1014.2 0.0
23/12:00am 16.1 14.4 11.3 73 2.6 S 11 13 6 7 1014.4 1014.2 0.0
 
Date/Time
WST
Temp
°C
App
Temp
°C
Dew
Point
°C
Rel
Hum
%
Delta-T
°C
Wind Press
QNH
hPa
Press
MSL
hPa
Rain since
9am
mm
Dir  Spd
km/h
Gust
km/h
Spd
kts
Gust
kts
22/11:30pm 17.0 14.9 11.1 68 3.2 S 13 17 7 9 1014.2 1014.0 0.0
22/11:00pm 17.3 15.1 10.8 65 3.5 SSW 13 17 7 9 1014.2 1014.0 0.0
22/10:30pm 17.4 15.1 10.5 64 3.7 SSW 13 17 7 9 1014.3 1014.1 0.0
22/10:00pm 18.0 14.4 10.5 61 4.0 SSW 20 24 11 13 1014.3 1014.1 0.0
22/09:30pm 18.1 15.2 10.9 63 3.9 SSW 17 26 9 14 1014.0 1013.8 0.0
22/09:00pm 18.4 14.6 11.2 63 3.9 SSW 22 32 12 17 1013.7 1013.5 0.0
22/08:30pm 18.6 14.5 11.3 62 4.0 SSW 24 35 13 19 1013.4 1013.2 0.0
22/08:00pm 18.7 14.6 11.4 62 4.0 SSW 24 32 13 17 1013.1 1012.9 0.0
22/07:30pm 19.1 14.1 11.0 59 4.4 SSW 28 35 15 19 1013.0 1012.8 0.0
22/07:00pm 19.6 14.2 11.0 57 4.7 SW 30 39 16 21 1012.7 1012.5 0.0
22/06:30pm 20.2 13.9 9.7 51 5.6 SSW 33 43 18 23 1012.2 1012.0 0.0
22/06:00pm 20.7 14.6 11.7 56 5.0 SW 35 43 19 23 1011.7 1011.5 0.0
22/05:30pm 21.4 15.5 11.3 52 5.6 SW 33 44 18 24 1011.3 1011.1 0.0
22/05:00pm 21.9 16.0 11.1 50 6.0 SW 33 46 18 25 1011.1 1010.9 0.0
22/04:30pm 22.2 15.8 12.1 52 5.7 WSW 37 50 20 27 1010.9 1010.7 0.0
22/04:00pm 22.8 16.5 10.9 47 6.6 SW 35 44 19 24 1010.9 1010.7 0.0
22/03:30pm 22.8 16.3 10.2 44 6.9 SW 35 46 19 25 1010.8 1010.6 0.0
22/03:00pm 22.7 16.0 9.8 44 7.0 WSW 35 46 19 25 1011.0 1010.8 0.0
22/02:30pm 23.3 17.1 9.5 41 7.5 SW 32 44 17 24 1011.2 1011.0 0.0
22/02:00pm 23.7 17.3 8.6 38 8.1 SW 32 44 17 24 1011.3 1011.1 0.0
22/01:30pm 23.8 17.6 10.2 42 7.5 SW 33 46 18 25 1011.2 1011.0 0.0
22/01:00pm 23.4 17.3 10.6 44 7.1 SW 33 46 18 25 1011.1 1010.9 0.0
22/12:30pm 24.6 18.5 11.8 44 7.3 SW 35 46 19 25 1010.9 1010.7 0.0
22/12:00pm 24.5 18.5 12.1 46 7.1 SW 35 46 19 25 1011.0 1010.8 0.0
22/11:30am 24.3 18.3 12.2 46 6.9 SW 35 44 19 24 1010.9 1010.7 0.0
22/11:06am 24.0 18.0 12.1 47 6.8 SW 35 52 19 28 1011.0 1010.8 0.0
22/11:00am 24.1 18.5 12.0 46 6.9 SSW 33 43 18 23 1010.9 1010.7 0.0
22/10:30am 23.7 18.6 13.0 51 6.2 SW 32 41 17 22 1010.8 1010.6 0.0
22/10:00am 23.5 19.1 12.9 51 6.1 SSW 28 39 15 21 1010.7 1010.5 0.0
22/09:30am 22.9 19.6 12.8 53 5.8 SSW 22 30 12 16 1010.7 1010.5 0.0
22/09:00am 21.6 17.6 13.0 58 4.9 S 26 39 14 21 1010.5 1010.3 0.0
22/08:30am 21.5 16.8 13.1 58 4.8 S 30 41 16 22 1010.7 1010.5 0.0
22/08:00am 20.1 15.4 13.3 65 3.9 S 30 41 16 22 1010.7 1010.5 0.0
22/07:30am 19.0 14.2 12.8 67 3.5 S 30 39 16 21 1010.6 1010.4 0.0
22/07:00am 17.9 14.5 12.5 70 3.0 S 22 28 12 15 1010.3 1010.1 0.0
22/06:30am 16.8 13.8 12.7 77 2.3 S 20 30 11 16 1010.2 1010.0 0.0
22/06:00am 16.2 13.3 12.8 80 1.9 S 20 26 11 14 1009.7 1009.5 0.0
22/05:30am 16.0 13.3 12.8 81 1.8 S 19 24 10 13 1009.5 1009.3 0.0
22/05:00am 15.9 13.5 12.8 82 1.7 S 17 26 9 14 1009.3 1009.1 0.0
22/04:30am 16.0 13.3 12.8 81 1.8 S 19 24 10 13 1009.0 1008.8 0.0
22/04:00am 16.3 13.7 13.1 81 1.8 S 19 24 10 13 1008.8 1008.6 0.0
22/03:30am 16.7 13.6 13.3 80 1.9 S 22 28 12 15 1008.6 1008.4 0.0
22/03:00am 17.0 15.0 13.8 81 1.8 S 17 20 9 11 1008.6 1008.4 0.0
22/02:30am 17.2 15.3 14.1 82 1.8 SSW 17 20 9 11 1008.3 1008.1 0.0
22/02:00am 17.4 16.0 14.5 83 1.7 S 15 20 8 11 1008.2 1008.0 0.0
22/01:30am 17.9 17.9 15.2 84 1.6 SSW 9 11 5 6 1008.5 1008.3 0.0
22/01:00am 18.6 18.0 15.6 83 1.8 SSW 13 15 7 8 1008.4 1008.2 0.0
22/12:30am 19.0 18.1 15.8 82 1.9 SSW 15 19 8 10 1008.5 1008.3 0.0
22/12:00am 19.3 18.3 15.6 79 2.2 SSW 15 20 8 11 1008.6 1008.4 0.0
 
Date/Time
WST
Temp
°C
App
Temp
°C
Dew
Point
°C
Rel
Hum
%
Delta-T
°C
Wind Press
QNH
hPa
Press
MSL
hPa
Rain since
9am
mm
Dir  Spd
km/h
Gust
km/h
Spd
kts
Gust
kts
21/11:30pm 19.5 18.8 15.4 77 2.4 SSW 13 17 7 9 1008.7 1008.5 0.0

Other Formats:

Comma delimited format used in spreadsheet applications
http://www.bom.gov.au/fwo/IDW60801/IDW60801.94609.axf

JavaScript Object Notation format (JSON) in row-major order
http://www.bom.gov.au/fwo/IDW60801/IDW60801.94609.json